San Antonio, Texas
Traffic Map
Current Weather Conditions
San Antonio, Texas
Overcast
Overcast
79°
Feels Like: 82°
Wind Chill: 79° Ceiling: 2200
Heat Index: 82° Visibility: 10mi
Dew Point: 75° Wind: 7mph
Humidity: 89% Direction: 150° (SSE)
Pressure: 29.96in Gusts: 0mph
Raw Report DataKSKF 051008Z AUTO 15006KT 10SM SCT009 OVC022 26/24 A2996 RMK AO2 CIG 009V022 $
Traffic Incident Summary
Active as of:
Severity:
Category:
InformationThere was an issue retrieving the traffic information for this location. Please try a different location or try again shortly.
Advertisements
Track Severe Weather on mobile